createdAt,value
2022-12-18T00:00:07.113Z,68.63
2022-12-18T00:02:42.946Z,67.27
2022-12-18T00:05:10.822Z,64.37
2022-12-18T00:07:38.796Z,63.83
2022-12-18T00:10:08.315Z,67.13
2022-12-18T00:12:36.061Z,59.80
2022-12-18T00:15:05.460Z,57.30
2022-12-18T00:17:33.275Z,59.17
2022-12-18T00:20:02.648Z,57.07
2022-12-18T00:22:30.336Z,58.23
2022-12-18T00:24:58.284Z,52.57
2022-12-18T00:27:25.987Z,55.07
2022-12-18T00:29:53.717Z,49.73
2022-12-18T00:32:21.527Z,52.10
2022-12-18T00:34:49.464Z,50.03
2022-12-18T00:37:20.476Z,56.73
2022-12-18T00:39:52.263Z,53.38
2022-12-18T00:42:40.156Z,51.00
2022-12-18T00:45:12.630Z,54.17
2022-12-18T00:47:41.367Z,51.20
2022-12-18T00:50:10.802Z,52.87
2022-12-18T00:52:43.531Z,51.70
2022-12-18T00:55:12.190Z,51.93
2022-12-18T00:57:40.052Z,53.00
2022-12-18T01:00:12.716Z,53.63
2022-12-18T01:02:41.556Z,52.00
2022-12-18T01:05:11.336Z,48.83
2022-12-18T01:07:39.249Z,52.13
2022-12-18T01:10:13.379Z,48.30
2022-12-18T01:12:41.610Z,53.67
2022-12-18T01:15:13.754Z,53.23
2022-12-18T01:17:41.825Z,50.80
2022-12-18T01:20:11.841Z,54.47
2022-12-18T01:22:39.899Z,57.07
2022-12-18T01:25:10.785Z,51.00
2022-12-18T01:27:38.556Z,55.17
2022-12-18T01:30:08.380Z,55.03
2022-12-18T01:32:36.152Z,55.83
2022-12-18T01:35:04.962Z,57.60
2022-12-18T01:37:32.821Z,50.23
2022-12-18T01:40:00.664Z,56.77
2022-12-18T01:42:29.835Z,59.30
2022-12-18T01:45:07.186Z,43.73
2022-12-18T01:47:41.568Z,45.00
2022-12-18T01:50:14.261Z,53.53
2022-12-18T01:52:44.743Z,58.60
2022-12-18T01:55:15.947Z,54.30
2022-12-18T01:57:45.960Z,49.77
2022-12-18T02:00:18.376Z,52.93
2022-12-18T02:02:48.210Z,48.13
2022-12-18T02:05:28.408Z,48.50
2022-12-18T02:08:10.611Z,53.40
2022-12-18T02:10:50.203Z,56.97
2022-12-18T02:13:33.285Z,54.03
2022-12-18T02:16:17.366Z,54.47
2022-12-18T02:18:52.157Z,54.80
2022-12-18T02:21:35.201Z,57.47
2022-12-18T02:24:30.453Z,51.63
2022-12-18T02:27:05.893Z,41.90
2022-12-18T02:29:39.815Z,33.25
2022-12-18T02:32:15.929Z,41.23
2022-12-18T02:34:46.974Z,41.23
2022-12-18T02:37:20.807Z,36.37
2022-12-18T02:39:54.033Z,46.03
2022-12-18T02:42:25.339Z,47.77
2022-12-18T02:44:56.724Z,44.87
2022-12-18T02:47:32.234Z,51.27
2022-12-18T02:50:14.427Z,52.73
2022-12-18T02:53:02.165Z,54.37
2022-12-18T02:55:54.425Z,50.77
2022-12-18T02:58:41.143Z,49.23
2022-12-18T03:01:24.282Z,50.80
2022-12-18T03:03:58.648Z,47.83
2022-12-18T03:06:33.027Z,46.40
2022-12-18T03:09:15.740Z,45.07
2022-12-18T03:12:12.280Z,38.30
2022-12-18T03:14:46.365Z,32.10
2022-12-18T03:17:24.303Z,28.23
2022-12-18T03:22:30.207Z,36.53
2022-12-18T03:25:03.979Z,41.93
2022-12-18T03:27:36.945Z,43.77
2022-12-18T03:33:09.899Z,49.07
2022-12-18T03:35:43.693Z,51.37
2022-12-18T03:38:13.818Z,45.57
2022-12-18T03:40:59.314Z,50.60
2022-12-18T03:43:43.869Z,50.50
2022-12-18T03:46:27.752Z,47.73
2022-12-18T03:49:09.277Z,48.30
2022-12-18T03:51:45.866Z,41.20
2022-12-18T03:56:58.077Z,27.17
2022-12-18T03:59:29.978Z,21.83
2022-12-18T04:02:04.045Z,16.90
2022-12-18T04:04:35.662Z,23.40
2022-12-18T04:07:07.251Z,20.20
2022-12-18T04:09:42.594Z,18.57
2022-12-18T04:12:11.259Z,22.43
2022-12-18T04:14:39.444Z,22.80
2022-12-18T04:17:11.207Z,30.30
2022-12-18T04:19:39.016Z,36.57
2022-12-18T04:22:06.869Z,38.20
2022-12-18T04:24:41.456Z,41.70
2022-12-18T04:27:19.991Z,43.90
2022-12-18T04:29:50.767Z,43.33
2022-12-18T04:32:20.839Z,42.27
2022-12-18T04:34:49.796Z,40.67
2022-12-18T04:37:18.621Z,39.33
2022-12-18T04:39:47.012Z,40.30
2022-12-18T04:42:22.346Z,37.45
2022-12-18T04:44:50.423Z,36.67
2022-12-18T04:47:18.219Z,25.43
2022-12-18T04:49:47.343Z,21.53
2022-12-18T04:52:15.453Z,20.20
2022-12-18T04:54:43.182Z,25.87
2022-12-18T04:57:11.035Z,23.23
2022-12-18T04:59:38.838Z,22.30
2022-12-18T05:02:06.831Z,26.73
2022-12-18T05:04:34.836Z,29.23
2022-12-18T05:07:04.213Z,37.27
2022-12-18T05:09:31.926Z,38.83
2022-12-18T05:11:59.627Z,39.53
2022-12-18T05:14:28.591Z,38.43
2022-12-18T05:17:00.645Z,24.30
2022-12-18T05:19:28.938Z,27.73
2022-12-18T05:21:56.711Z,20.73
2022-12-18T05:24:25.847Z,22.57
2022-12-18T05:26:53.864Z,19.83
2022-12-18T05:29:21.902Z,15.60
2022-12-18T05:31:49.722Z,16.33
2022-12-18T05:34:17.662Z,15.63
2022-12-18T05:36:45.460Z,16.43
2022-12-18T05:39:13.435Z,15.60
2022-12-18T05:41:42.816Z,14.67
2022-12-18T05:44:11.157Z,14.03
2022-12-18T05:46:46.357Z,16.37
2022-12-18T05:49:14.096Z,18.00
2022-12-18T05:51:41.762Z,11.47
2022-12-18T05:54:10.347Z,13.37
2022-12-18T05:56:38.090Z,8.97
2022-12-18T05:59:07.150Z,14.07
2022-12-18T06:01:35.020Z,12.23
2022-12-18T06:04:02.972Z,9.33
2022-12-18T06:06:31.146Z,17.60
2022-12-18T06:08:59.177Z,12.43
2022-12-18T06:11:28.050Z,13.33
2022-12-18T06:13:58.958Z,10.67
2022-12-18T06:16:30.240Z,16.80
2022-12-18T06:18:59.632Z,9.17
2022-12-18T06:21:28.860Z,10.27
2022-12-18T06:23:56.913Z,13.53
2022-12-18T06:26:28.257Z,14.70
2022-12-18T06:28:56.649Z,14.53
2022-12-18T06:31:24.800Z,15.10
2022-12-18T06:33:54.403Z,13.00
2022-12-18T06:36:22.659Z,16.00
2022-12-18T06:38:50.626Z,16.87
2022-12-18T06:41:21.751Z,16.83
2022-12-18T06:43:49.663Z,18.23
2022-12-18T06:46:17.638Z,17.50
2022-12-18T06:48:49.802Z,16.33
2022-12-18T06:51:21.263Z,18.13
2022-12-18T06:53:49.282Z,21.50
2022-12-18T06:56:17.294Z,20.93
2022-12-18T06:58:45.229Z,21.57
2022-12-18T07:01:15.168Z,17.60
2022-12-18T07:03:44.532Z,15.70
2022-12-18T07:06:16.860Z,18.00
2022-12-18T07:08:47.033Z,20.70
2022-12-18T07:11:15.934Z,19.60
2022-12-18T07:13:44.682Z,21.03
2022-12-18T07:16:22.324Z,25.27
2022-12-18T07:18:52.409Z,22.07
2022-12-18T07:21:21.490Z,19.63
2022-12-18T07:23:50.579Z,22.83
2022-12-18T07:26:22.465Z,19.40
2022-12-18T07:28:51.277Z,21.07
2022-12-18T07:31:22.504Z,15.70
2022-12-18T07:33:51.590Z,18.37
2022-12-18T07:36:20.080Z,12.43
2022-12-18T07:38:50.952Z,13.70
2022-12-18T07:41:19.672Z,12.60
2022-12-18T07:43:47.957Z,17.47
2022-12-18T07:46:17.325Z,19.00
2022-12-18T07:48:49.287Z,17.77
2022-12-18T07:51:19.535Z,14.07
2022-12-18T07:53:48.775Z,18.27
2022-12-18T07:56:27.842Z,18.83
2022-12-18T07:58:56.644Z,13.50
2022-12-18T08:01:25.251Z,21.13
2022-12-18T08:03:53.157Z,19.83
2022-12-18T08:06:23.294Z,18.30
2022-12-18T08:08:54.525Z,19.70
2022-12-18T08:11:27.114Z,16.87
2022-12-18T08:13:55.764Z,16.80
2022-12-18T08:16:24.192Z,19.63
2022-12-18T08:18:53.634Z,18.73
2022-12-18T08:21:24.787Z,21.00
2022-12-18T08:23:54.958Z,19.07
2022-12-18T08:26:26.664Z,18.83
2022-12-18T08:28:56.484Z,18.53
2022-12-18T08:31:25.967Z,13.10
2022-12-18T08:33:55.325Z,11.20
2022-12-18T08:36:24.884Z,15.87
2022-12-18T08:38:54.087Z,12.93
2022-12-18T08:41:23.973Z,13.87
2022-12-18T08:44:10.359Z,15.10
2022-12-18T08:49:09.189Z,17.87
2022-12-18T08:51:37.844Z,9.13
2022-12-18T08:54:07.187Z,14.23
2022-12-18T08:56:36.520Z,18.77
2022-12-18T08:59:05.214Z,18.57
2022-12-18T09:01:33.177Z,19.90
2022-12-18T09:04:02.195Z,15.33
2022-12-18T09:06:30.170Z,16.63
2022-12-18T09:08:58.476Z,14.10
2022-12-18T09:11:28.798Z,16.60
2022-12-18T09:14:00.760Z,17.87
2022-12-18T09:16:32.610Z,11.83
2022-12-18T09:19:02.315Z,14.17
2022-12-18T09:21:36.768Z,16.40
2022-12-18T09:24:08.514Z,16.00
2022-12-18T09:26:37.884Z,17.87
2022-12-18T09:29:10.988Z,11.73
2022-12-18T09:31:40.025Z,12.53
2022-12-18T09:34:08.340Z,15.07
2022-12-18T09:36:36.314Z,15.50
2022-12-18T09:39:08.096Z,14.30
2022-12-18T09:41:45.274Z,10.80
2022-12-18T09:44:26.355Z,12.77
2022-12-18T09:47:05.742Z,12.60
2022-12-18T09:49:41.540Z,11.23
2022-12-18T09:54:51.107Z,14.50
2022-12-18T09:57:23.418Z,14.68
2022-12-18T09:59:59.557Z,11.33
2022-12-18T10:02:32.357Z,12.53
2022-12-18T10:05:07.653Z,14.57
2022-12-18T10:07:50.839Z,13.60
2022-12-18T10:10:32.755Z,16.77
2022-12-18T10:13:13.515Z,13.20
2022-12-18T10:15:59.284Z,13.60
2022-12-18T10:18:57.663Z,13.50
2022-12-18T10:21:34.782Z,14.37
2022-12-18T10:24:15.935Z,16.27
2022-12-18T10:26:45.133Z,14.37
2022-12-18T10:29:16.668Z,18.47
2022-12-18T10:31:45.931Z,16.33
2022-12-18T10:34:15.145Z,16.03
2022-12-18T10:36:44.158Z,16.03
2022-12-18T10:39:18.778Z,13.93
2022-12-18T10:41:47.231Z,10.37
2022-12-18T10:44:21.054Z,14.97
2022-12-18T10:46:56.852Z,10.27
2022-12-18T10:49:28.957Z,10.52
2022-12-18T10:52:13.235Z,13.13
2022-12-18T10:54:48.718Z,13.93
2022-12-18T10:57:37.991Z,13.85
2022-12-18T11:00:29.776Z,13.13
2022-12-18T11:02:59.247Z,15.23
2022-12-18T11:05:31.730Z,13.53
2022-12-18T11:08:01.458Z,13.67
2022-12-18T11:10:33.717Z,12.63
2022-12-18T11:13:18.969Z,16.43
2022-12-18T11:15:47.515Z,13.17
2022-12-18T11:18:25.917Z,12.80
2022-12-18T11:20:58.964Z,13.47
2022-12-18T11:23:28.994Z,12.63
2022-12-18T11:26:03.246Z,12.27
2022-12-18T11:28:39.353Z,11.63
2022-12-18T11:31:26.931Z,13.47
2022-12-18T11:34:28.159Z,14.17
2022-12-18T11:36:55.593Z,13.37
2022-12-18T11:39:37.180Z,13.37
2022-12-18T11:42:13.743Z,9.60
2022-12-18T11:44:52.445Z,9.50
2022-12-18T11:47:31.545Z,13.40
2022-12-18T11:50:04.965Z,9.83
2022-12-18T11:52:40.434Z,13.20
2022-12-18T11:55:16.167Z,9.98
2022-12-18T11:57:54.614Z,9.13
2022-12-18T12:00:24.152Z,12.23
2022-12-18T12:03:23.209Z,8.40
2022-12-18T12:06:09.148Z,10.43
2022-12-18T12:08:58.432Z,13.10
2022-12-18T12:11:40.848Z,13.70
2022-12-18T12:14:36.038Z,10.23
2022-12-18T12:17:15.036Z,10.33
2022-12-18T12:19:55.908Z,14.73
2022-12-18T12:22:36.336Z,13.20
2022-12-18T12:25:27.049Z,10.40
2022-12-18T12:28:14.679Z,11.43
2022-12-18T12:30:55.244Z,12.30
2022-12-18T12:33:42.619Z,13.43
2022-12-18T12:36:24.962Z,11.47
2022-12-18T12:39:00.804Z,8.17
2022-12-18T12:41:53.981Z,16.27
2022-12-18T12:44:30.046Z,9.30
2022-12-18T12:47:07.994Z,11.30
2022-12-18T12:49:40.459Z,11.27
2022-12-18T12:52:15.889Z,10.63
2022-12-18T12:54:47.603Z,9.40
2022-12-18T12:57:27.500Z,12.33
2022-12-18T13:00:07.455Z,11.17
2022-12-18T13:02:49.099Z,14.10
2022-12-18T13:05:35.540Z,8.60
2022-12-18T13:08:07.867Z,12.80
2022-12-18T13:10:38.945Z,9.03
2022-12-18T13:13:10.986Z,14.27
2022-12-18T13:15:41.950Z,9.27
2022-12-18T13:18:19.033Z,12.53
2022-12-18T13:20:55.311Z,11.67
2022-12-18T13:23:33.776Z,14.03
2022-12-18T13:26:35.293Z,10.77
2022-12-18T13:29:05.771Z,7.73
2022-12-18T13:32:01.019Z,8.50
2022-12-18T13:34:32.235Z,11.73
2022-12-18T13:37:42.595Z,10.77
2022-12-18T13:40:56.212Z,7.80
2022-12-18T13:43:32.134Z,11.63
2022-12-18T13:46:05.147Z,10.50
2022-12-18T13:48:38.903Z,9.63
2022-12-18T13:51:12.061Z,10.87
2022-12-18T13:53:47.173Z,9.47
2022-12-18T13:56:18.261Z,9.88
2022-12-18T13:59:04.883Z,9.23
2022-12-18T14:04:12.169Z,10.43
2022-12-18T14:06:40.536Z,8.33
2022-12-18T14:09:19.001Z,10.37
2022-12-18T14:11:50.907Z,8.97
2022-12-18T14:14:21.043Z,15.17
2022-12-18T14:16:49.746Z,10.43
2022-12-18T14:19:19.437Z,7.93
2022-12-18T14:21:50.145Z,7.97
2022-12-18T14:24:20.787Z,8.30
2022-12-18T14:26:50.934Z,9.57
2022-12-18T14:29:25.983Z,8.40
2022-12-18T14:32:17.915Z,9.95
2022-12-18T14:34:48.603Z,8.73
2022-12-18T14:37:21.655Z,7.13
2022-12-18T14:40:08.732Z,10.73
2022-12-18T14:42:39.096Z,8.77
2022-12-18T14:45:43.066Z,9.53
2022-12-18T14:48:23.048Z,9.17
2022-12-18T14:51:01.677Z,9.97
2022-12-18T14:53:40.555Z,9.37
2022-12-18T14:56:21.782Z,10.77
2022-12-18T14:58:54.410Z,8.70
2022-12-18T15:01:28.332Z,10.67
2022-12-18T15:03:59.729Z,8.88
2022-12-18T15:06:32.750Z,8.17
2022-12-18T15:09:04.187Z,10.67
2022-12-18T15:11:45.854Z,8.20
2022-12-18T15:14:33.750Z,7.90
2022-12-18T15:17:07.468Z,8.53
2022-12-18T15:19:41.316Z,8.83
2022-12-18T15:22:24.333Z,11.63
2022-12-18T15:24:53.281Z,12.07
2022-12-18T15:27:30.588Z,7.23
2022-12-18T15:30:22.901Z,9.13
2022-12-18T15:33:25.633Z,13.43
2022-12-18T15:35:59.141Z,10.43
2022-12-18T15:38:27.198Z,8.03
2022-12-18T15:40:55.951Z,12.20
2022-12-18T15:43:35.264Z,8.73
2022-12-18T15:46:06.298Z,8.90
2022-12-18T15:48:40.935Z,8.27
2022-12-18T15:51:16.324Z,10.33
2022-12-18T15:53:45.696Z,9.90
2022-12-18T15:56:34.916Z,10.20
2022-12-18T15:59:08.257Z,10.73
2022-12-18T16:01:39.582Z,10.17
2022-12-18T16:04:13.269Z,12.30
2022-12-18T16:07:12.850Z,14.63
2022-12-18T16:09:30.176Z,12.10
2022-12-18T16:12:00.951Z,12.27
2022-12-18T16:14:31.097Z,12.23
2022-12-18T16:17:01.766Z,5.67
2022-12-18T16:19:31.285Z,7.07
2022-12-18T16:22:01.103Z,11.23
2022-12-18T16:24:32.380Z,9.43
2022-12-18T16:27:01.707Z,12.13
2022-12-18T16:29:30.205Z,12.27
2022-12-18T16:32:00.423Z,10.40
2022-12-18T16:34:35.392Z,12.77
2022-12-18T16:37:07.393Z,16.98
2022-12-18T16:39:37.339Z,27.40
2022-12-18T16:42:10.994Z,12.00
2022-12-18T16:44:39.014Z,16.23
2022-12-18T16:47:06.911Z,12.43
2022-12-18T16:49:39.183Z,13.13
2022-12-18T16:52:08.093Z,11.17
2022-12-18T16:54:36.528Z,12.10
2022-12-18T16:57:07.835Z,11.83
2022-12-18T16:59:35.921Z,13.60
2022-12-18T17:02:07.331Z,14.73
2022-12-18T17:04:36.087Z,11.77
2022-12-18T17:07:05.136Z,12.30
2022-12-18T17:09:32.899Z,11.13
2022-12-18T17:12:04.275Z,10.63
2022-12-18T17:14:34.558Z,8.03
2022-12-18T17:19:52.397Z,12.13
2022-12-18T17:22:23.229Z,12.47
2022-12-18T17:24:51.111Z,13.33
2022-12-18T17:27:18.823Z,12.07
2022-12-18T17:29:48.401Z,13.20
2022-12-18T17:32:17.162Z,12.73
2022-12-18T17:34:45.442Z,12.03
2022-12-18T17:37:13.870Z,13.10
2022-12-18T17:39:43.187Z,12.60
2022-12-18T17:42:15.339Z,13.17
2022-12-18T17:44:44.802Z,9.77
2022-12-18T17:47:13.702Z,9.67
2022-12-18T17:49:41.873Z,11.63
2022-12-18T17:52:10.184Z,12.57
2022-12-18T17:54:41.314Z,14.80
2022-12-18T17:57:12.118Z,12.17
2022-12-18T17:59:40.803Z,10.60
2022-12-18T18:02:11.230Z,13.40
2022-12-18T18:04:40.296Z,14.23
2022-12-18T18:07:08.095Z,13.23
2022-12-18T18:09:35.914Z,13.63
2022-12-18T18:12:22.776Z,13.00
2022-12-18T18:14:52.071Z,12.20
2022-12-18T18:17:20.383Z,15.13
2022-12-18T18:19:49.628Z,12.23
2022-12-18T18:22:18.867Z,15.33
2022-12-18T18:24:46.846Z,13.37
2022-12-18T18:27:15.068Z,12.33
2022-12-18T18:29:43.153Z,12.67
2022-12-18T18:32:12.618Z,11.37
2022-12-18T18:34:40.379Z,12.73
2022-12-18T18:37:11.878Z,15.77
2022-12-18T18:39:40.031Z,14.57
2022-12-18T18:42:07.966Z,13.63
2022-12-18T18:44:35.812Z,15.40
2022-12-18T18:47:06.923Z,14.63
2022-12-18T18:49:39.107Z,15.30
2022-12-18T18:52:07.485Z,15.73
2022-12-18T18:54:35.554Z,14.33
2022-12-18T18:57:19.883Z,14.27
2022-12-18T18:59:48.623Z,13.20
2022-12-18T19:02:17.914Z,13.63
2022-12-18T19:04:47.698Z,15.13
2022-12-18T19:07:29.458Z,15.17
2022-12-18T19:10:07.246Z,14.40
2022-12-18T19:12:53.881Z,16.97
2022-12-18T19:15:22.736Z,15.80
2022-12-18T19:17:50.856Z,16.13
2022-12-18T19:20:20.499Z,16.07
2022-12-18T19:22:55.299Z,15.13
2022-12-18T19:25:29.917Z,16.90
2022-12-18T19:28:21.524Z,15.90
2022-12-18T19:30:59.068Z,17.23
2022-12-18T19:33:44.862Z,15.70
2022-12-18T19:36:21.168Z,15.70
2022-12-18T19:38:51.434Z,17.47
2022-12-18T19:41:21.605Z,16.50
2022-12-18T19:43:50.772Z,16.53
2022-12-18T19:46:21.820Z,18.60
2022-12-18T19:48:51.180Z,17.43
2022-12-18T19:51:24.506Z,17.00
2022-12-18T19:53:58.496Z,17.83
2022-12-18T19:56:30.951Z,17.70
2022-12-18T19:58:59.437Z,20.17
2022-12-18T20:01:29.510Z,18.70
2022-12-18T20:03:58.943Z,18.50
2022-12-18T20:06:31.611Z,19.07
2022-12-18T20:09:03.609Z,22.20
2022-12-18T20:11:33.774Z,18.77
2022-12-18T20:14:06.661Z,21.38
2022-12-18T20:16:34.457Z,19.97
2022-12-18T20:19:03.091Z,22.63
2022-12-18T20:21:32.852Z,20.33
2022-12-18T20:24:01.913Z,21.60
2022-12-18T20:26:30.064Z,24.00
2022-12-18T20:28:58.119Z,21.33
2022-12-18T20:31:25.917Z,24.53
2022-12-18T20:33:59.623Z,23.33
2022-12-18T20:36:29.625Z,22.25
2022-12-18T20:39:01.776Z,23.43
2022-12-18T20:41:38.350Z,25.77
2022-12-18T20:44:21.481Z,23.77
2022-12-18T20:46:51.657Z,28.43
2022-12-18T20:49:19.613Z,25.20
2022-12-18T20:51:51.409Z,25.27
2022-12-18T20:54:21.766Z,18.17
2022-12-18T20:56:50.521Z,24.87
2022-12-18T20:59:19.555Z,21.93
2022-12-18T21:01:48.527Z,25.77
2022-12-18T21:04:18.377Z,25.07
2022-12-18T21:06:52.067Z,27.20
2022-12-18T21:09:23.730Z,26.60
2022-12-18T21:12:10.400Z,26.03
2022-12-18T21:14:43.912Z,26.33
2022-12-18T21:17:12.155Z,28.33
2022-12-18T21:19:40.157Z,25.90
2022-12-18T21:22:09.825Z,26.23
2022-12-18T21:24:38.942Z,25.50
2022-12-18T21:27:06.702Z,27.07
2022-12-18T21:29:34.973Z,29.33
2022-12-18T21:32:04.633Z,29.57
2022-12-18T21:34:33.307Z,32.13
2022-12-18T21:37:02.199Z,33.77
2022-12-18T21:39:30.733Z,32.43
2022-12-18T21:42:19.085Z,34.77
2022-12-18T21:44:49.167Z,35.03
2022-12-18T21:47:22.568Z,40.00
2022-12-18T21:49:52.765Z,36.97
2022-12-18T21:52:30.755Z,37.13
2022-12-18T21:55:08.021Z,41.67
2022-12-18T21:57:39.323Z,49.63
2022-12-18T22:00:18.859Z,55.80
2022-12-18T22:02:48.762Z,58.00
2022-12-18T22:05:36.400Z,59.77
2022-12-18T22:08:04.971Z,59.43
2022-12-18T22:10:33.074Z,67.63
2022-12-18T22:13:02.347Z,74.87
2022-12-18T22:15:30.084Z,69.53
2022-12-18T22:18:00.139Z,73.50
2022-12-18T22:20:29.738Z,79.50
2022-12-18T22:22:58.521Z,77.27
2022-12-18T22:25:26.347Z,80.83
2022-12-18T22:28:12.594Z,77.67
2022-12-18T22:30:41.698Z,77.35
2022-12-18T22:33:09.476Z,75.37
2022-12-18T22:35:37.382Z,88.73
2022-12-18T22:38:05.126Z,82.87
2022-12-18T22:40:33.202Z,82.13
2022-12-18T22:43:00.972Z,87.67
2022-12-18T22:45:28.765Z,80.47
2022-12-18T22:47:58.061Z,83.60
2022-12-18T22:50:26.046Z,77.90
2022-12-18T22:52:54.057Z,73.57
2022-12-18T22:55:21.984Z,76.93
2022-12-18T22:57:52.742Z,52.57
2022-12-18T23:00:23.907Z,82.47
2022-12-18T23:02:59.180Z,61.83
2022-12-18T23:05:31.290Z,69.93
2022-12-18T23:07:59.591Z,88.63
2022-12-18T23:10:28.373Z,73.80
2022-12-18T23:12:56.256Z,66.90
2022-12-18T23:15:28.406Z,78.57
2022-12-18T23:17:58.491Z,80.37
2022-12-18T23:20:28.156Z,80.03
2022-12-18T23:22:57.373Z,56.80
2022-12-18T23:25:25.040Z,76.63
2022-12-18T23:27:52.825Z,73.33
2022-12-18T23:30:20.689Z,84.97
2022-12-18T23:32:48.470Z,81.27
2022-12-18T23:35:17.225Z,86.47
2022-12-18T23:37:58.791Z,88.27
2022-12-18T23:40:29.963Z,98.83
2022-12-18T23:43:00.228Z,90.10
2022-12-18T23:45:28.290Z,68.30
2022-12-18T23:47:56.134Z,92.90
2022-12-18T23:50:29.026Z,79.30
2022-12-18T23:53:04.704Z,80.63
2022-12-18T23:55:39.830Z,77.50
2022-12-18T23:58:14.974Z,95.30
